createdAt,value
2023-05-12T00:01:48.754Z,20.49
2023-05-12T00:04:33.857Z,20.45
2023-05-12T00:07:18.979Z,20.44
2023-05-12T00:10:04.028Z,20.43
2023-05-12T00:12:50.035Z,20.43
2023-05-12T00:15:37.073Z,20.42
2023-05-12T00:18:23.037Z,20.40
2023-05-12T00:21:08.735Z,20.40
2023-05-12T00:23:53.568Z,20.36
2023-05-12T00:26:38.461Z,20.37
2023-05-12T00:29:23.370Z,20.36
2023-05-12T00:32:08.349Z,20.34
2023-05-12T00:34:57.395Z,20.35
2023-05-12T00:37:42.747Z,20.32
2023-05-12T00:40:27.974Z,20.33
2023-05-12T00:43:12.839Z,20.31
2023-05-12T00:45:57.753Z,20.27
2023-05-12T00:48:44.207Z,20.25
2023-05-12T00:51:29.526Z,20.23
2023-05-12T00:54:14.726Z,20.20
2023-05-12T00:56:59.907Z,20.18
2023-05-12T00:59:45.123Z,20.16
2023-05-12T01:02:31.003Z,20.15
2023-05-12T01:05:16.590Z,20.14
2023-05-12T01:08:03.169Z,20.11
2023-05-12T01:10:48.127Z,20.10
2023-05-12T01:13:33.073Z,20.09
2023-05-12T01:16:22.974Z,20.08
2023-05-12T01:19:14.956Z,20.07
2023-05-12T01:22:00.685Z,20.05
2023-05-12T01:24:59.076Z,20.02
2023-05-12T01:27:45.896Z,20.00
2023-05-12T01:30:32.470Z,19.98
2023-05-12T01:33:17.662Z,19.97
2023-05-12T01:36:02.764Z,19.96
2023-05-12T01:38:48.068Z,19.97
2023-05-12T01:41:33.027Z,19.93
2023-05-12T01:44:17.834Z,19.93
2023-05-12T01:47:02.857Z,19.91
2023-05-12T01:49:47.732Z,19.97
2023-05-12T01:52:32.942Z,19.96
2023-05-12T01:55:18.032Z,19.89
2023-05-12T01:58:03.158Z,19.85
2023-05-12T02:00:48.312Z,19.84
2023-05-12T02:03:33.195Z,19.80
2023-05-12T02:06:18.578Z,19.76
2023-05-12T02:09:03.604Z,19.76
2023-05-12T02:11:49.410Z,19.78
2023-05-12T02:14:34.591Z,19.76
2023-05-12T02:17:19.762Z,19.73
2023-05-12T02:20:05.391Z,19.74
2023-05-12T02:22:50.412Z,19.76
2023-05-12T02:25:35.792Z,19.75
2023-05-12T02:28:20.740Z,19.76
2023-05-12T02:31:05.584Z,19.70
2023-05-12T02:33:51.568Z,19.68
2023-05-12T02:36:36.359Z,19.61
2023-05-12T02:39:21.405Z,19.61
2023-05-12T02:42:07.134Z,19.60
2023-05-12T02:44:52.344Z,19.60
2023-05-12T02:47:37.539Z,19.56
2023-05-12T02:50:22.916Z,19.53
2023-05-12T02:53:07.835Z,19.56
2023-05-12T02:55:53.181Z,19.55
2023-05-12T02:58:38.070Z,19.50
2023-05-12T03:01:22.854Z,19.43
2023-05-12T03:04:07.750Z,19.43
2023-05-12T03:06:52.465Z,19.46
2023-05-12T03:09:37.391Z,19.44
2023-05-12T03:12:22.072Z,19.44
2023-05-12T03:15:07.827Z,19.40
2023-05-12T03:17:52.822Z,19.43
2023-05-12T03:20:37.686Z,19.42
2023-05-12T03:23:22.694Z,19.37
2023-05-12T03:26:07.613Z,19.31
2023-05-12T03:28:52.786Z,19.33
2023-05-12T03:31:38.354Z,19.34
2023-05-12T03:34:23.355Z,19.31
2023-05-12T03:37:08.512Z,19.31
2023-05-12T03:39:56.058Z,19.28
2023-05-12T03:42:40.983Z,19.24
2023-05-12T03:45:25.963Z,19.24
2023-05-12T03:48:10.888Z,19.17
2023-05-12T03:50:56.011Z,19.18
2023-05-12T03:53:45.136Z,19.16
2023-05-12T03:56:30.230Z,19.15
2023-05-12T03:59:16.142Z,19.15
2023-05-12T04:02:01.711Z,19.11
2023-05-12T04:04:47.253Z,19.04
2023-05-12T04:07:32.306Z,19.11
2023-05-12T04:10:17.665Z,19.04
2023-05-12T04:13:02.644Z,19.09
2023-05-12T04:15:49.196Z,19.12
2023-05-12T04:18:35.775Z,19.16
2023-05-12T04:21:20.988Z,19.26
2023-05-12T04:24:06.319Z,19.37
2023-05-12T04:26:51.373Z,19.49
2023-05-12T04:29:36.332Z,19.46
2023-05-12T04:32:21.765Z,19.38
2023-05-12T04:35:07.209Z,19.36
2023-05-12T04:37:52.695Z,19.37
2023-05-12T04:42:01.896Z,19.36
2023-05-12T04:44:46.949Z,19.36
2023-05-12T04:47:32.089Z,19.44
2023-05-12T04:50:17.458Z,19.43
2023-05-12T04:53:02.718Z,19.47
2023-05-12T04:55:47.518Z,19.43
2023-05-12T04:58:32.559Z,19.27
2023-05-12T05:01:18.104Z,19.31
2023-05-12T05:04:03.229Z,19.34
2023-05-12T05:06:48.216Z,19.33
2023-05-12T05:09:34.513Z,19.32
2023-05-12T05:12:21.237Z,19.31
2023-05-12T05:15:07.540Z,19.28
2023-05-12T05:17:52.600Z,19.27
2023-05-12T05:20:40.834Z,19.26
2023-05-12T05:23:28.770Z,19.27
2023-05-12T05:26:14.052Z,19.25
2023-05-12T05:28:59.256Z,19.18
2023-05-12T05:31:44.422Z,19.20
2023-05-12T05:34:29.613Z,19.21
2023-05-12T05:37:14.519Z,19.21
2023-05-12T05:39:59.399Z,19.20
2023-05-12T05:42:44.598Z,19.14
2023-05-12T05:45:29.911Z,19.14
2023-05-12T05:48:15.846Z,19.15
2023-05-12T05:51:00.948Z,19.15
2023-05-12T05:53:45.891Z,19.15
2023-05-12T05:56:31.681Z,19.14
2023-05-12T05:59:16.597Z,19.20
2023-05-12T06:02:01.600Z,19.22
2023-05-12T06:04:47.130Z,19.22
2023-05-12T06:07:31.972Z,19.18
2023-05-12T06:10:16.804Z,19.19
2023-05-12T06:13:02.150Z,19.14
2023-05-12T06:15:47.051Z,19.13
2023-05-12T06:18:33.914Z,19.10
2023-05-12T06:21:19.198Z,19.07
2023-05-12T06:24:04.267Z,19.04
2023-05-12T06:26:49.491Z,19.03
2023-05-12T06:29:34.759Z,18.99
2023-05-12T06:32:19.598Z,18.98
2023-05-12T06:35:05.276Z,18.95
2023-05-12T06:37:50.928Z,18.91
2023-05-12T06:40:36.029Z,18.89
2023-05-12T06:43:20.822Z,18.85
2023-05-12T06:46:06.928Z,18.83
2023-05-12T06:48:52.425Z,18.80
2023-05-12T06:51:37.612Z,18.84
2023-05-12T06:54:22.645Z,18.76
2023-05-12T06:57:07.711Z,18.79
2023-05-12T06:59:52.625Z,18.75
2023-05-12T07:02:37.689Z,18.72
2023-05-12T07:05:23.311Z,18.72
2023-05-12T07:08:08.778Z,18.64
2023-05-12T07:10:53.660Z,18.69
2023-05-12T07:13:39.097Z,18.79
2023-05-12T07:16:24.346Z,18.82
2023-05-12T07:19:09.633Z,18.83
2023-05-12T07:21:54.938Z,18.82
2023-05-12T07:24:40.179Z,18.88
2023-05-12T07:27:25.391Z,18.82
2023-05-12T07:30:11.221Z,18.85
2023-05-12T07:32:56.158Z,18.88
2023-05-12T07:35:40.978Z,18.93
2023-05-12T07:38:26.084Z,19.09
2023-05-12T07:41:11.447Z,19.23
2023-05-12T07:43:56.527Z,19.37
2023-05-12T07:46:41.555Z,19.57
2023-05-12T07:49:26.704Z,19.69
2023-05-12T07:52:11.947Z,19.87
2023-05-12T07:54:57.670Z,20.05
2023-05-12T07:57:42.943Z,20.14
2023-05-12T08:00:28.587Z,20.25
2023-05-12T08:03:13.628Z,20.62
2023-05-12T08:05:58.839Z,21.03
2023-05-12T08:08:43.999Z,21.26
2023-05-12T08:11:29.172Z,21.38
2023-05-12T08:14:14.100Z,21.54
2023-05-12T08:16:59.019Z,21.60
2023-05-12T08:19:43.883Z,21.62
2023-05-12T08:22:28.815Z,21.58
2023-05-12T08:25:13.795Z,21.58
2023-05-12T08:27:59.796Z,21.55
2023-05-12T08:30:45.494Z,21.52
2023-05-12T08:33:31.050Z,21.59
2023-05-12T08:36:16.219Z,21.64
2023-05-12T08:39:02.693Z,21.74
2023-05-12T08:41:56.840Z,21.85
2023-05-12T08:44:41.942Z,21.89
2023-05-12T08:47:28.597Z,22.06
2023-05-12T08:50:17.034Z,22.13
2023-05-12T08:53:04.319Z,22.25
2023-05-12T08:57:08.317Z,22.31
2023-05-12T08:58:55.234Z,22.45
2023-05-12T09:01:42.983Z,22.47
2023-05-12T09:04:28.356Z,22.47
2023-05-12T09:07:14.057Z,22.36
2023-05-12T09:10:01.078Z,22.42
2023-05-12T09:12:47.817Z,22.62
2023-05-12T09:15:39.002Z,22.74
2023-05-12T09:18:24.180Z,22.84
2023-05-12T09:21:09.147Z,22.90
2023-05-12T09:23:58.968Z,22.96
2023-05-12T09:26:47.430Z,23.06
2023-05-12T09:29:37.517Z,22.95
2023-05-12T09:32:32.845Z,23.12
2023-05-12T09:35:17.803Z,23.09
2023-05-12T09:38:08.703Z,23.19
2023-05-12T09:40:53.964Z,23.16
2023-05-12T09:43:45.783Z,23.16
2023-05-12T09:46:31.072Z,23.13
2023-05-12T09:49:22.373Z,23.16
2023-05-12T09:52:07.161Z,23.18
2023-05-12T09:54:52.698Z,23.22
2023-05-12T09:57:41.200Z,23.22
2023-05-12T10:00:38.483Z,22.60
2023-05-12T10:03:33.399Z,22.27
2023-05-12T10:06:26.531Z,22.60
2023-05-12T10:09:19.542Z,22.58
2023-05-12T10:12:06.272Z,22.76
2023-05-12T10:14:52.080Z,22.76
2023-05-12T10:17:37.522Z,22.81
2023-05-12T10:20:23.208Z,22.80
2023-05-12T10:23:12.184Z,22.88
2023-05-12T10:26:01.904Z,22.80
2023-05-12T10:28:47.713Z,22.83
2023-05-12T10:31:32.993Z,22.82
2023-05-12T10:34:19.301Z,22.75
2023-05-12T10:37:09.008Z,22.29
2023-05-12T10:39:54.352Z,21.84
2023-05-12T10:42:42.535Z,22.14
2023-05-12T10:45:28.235Z,22.38
2023-05-12T10:48:15.605Z,22.45
2023-05-12T10:51:10.654Z,22.47
2023-05-12T10:54:06.553Z,22.50
2023-05-12T10:56:52.741Z,22.51
2023-05-12T10:59:48.873Z,22.49
2023-05-12T11:02:36.762Z,22.50
2023-05-12T11:05:34.553Z,22.50
2023-05-12T11:08:19.979Z,22.47
2023-05-12T11:11:06.248Z,22.42
2023-05-12T11:13:51.816Z,22.38
2023-05-12T11:16:42.936Z,22.45
2023-05-12T11:19:29.073Z,22.42
2023-05-12T11:22:17.444Z,22.39
2023-05-12T11:25:11.731Z,22.39
2023-05-12T11:27:57.000Z,22.34
2023-05-12T11:30:54.948Z,22.42
2023-05-12T11:33:40.577Z,22.44
2023-05-12T11:36:25.374Z,22.40
2023-05-12T11:39:22.055Z,22.33
2023-05-12T11:42:13.458Z,22.31
2023-05-12T11:44:58.929Z,22.29
2023-05-12T11:47:43.836Z,22.24
2023-05-12T11:50:28.810Z,22.18
2023-05-12T11:53:17.120Z,22.22
2023-05-12T11:56:02.245Z,22.17
2023-05-12T11:58:56.277Z,22.16
2023-05-12T12:01:46.612Z,22.12
2023-05-12T12:04:36.246Z,22.11
2023-05-12T12:07:32.047Z,22.09
2023-05-12T12:10:18.598Z,22.05
2023-05-12T12:13:03.903Z,22.03
2023-05-12T12:15:50.643Z,21.99
2023-05-12T12:18:35.925Z,21.92
2023-05-12T12:21:22.364Z,21.91
2023-05-12T12:24:07.556Z,21.92
2023-05-12T12:26:52.814Z,21.88
2023-05-12T12:29:37.834Z,21.88
2023-05-12T12:32:22.817Z,21.87
2023-05-12T12:35:08.083Z,21.86
2023-05-12T12:37:52.986Z,21.84
2023-05-12T12:40:38.258Z,21.82
2023-05-12T12:43:23.042Z,21.80
2023-05-12T12:46:08.095Z,21.79
2023-05-12T12:48:53.464Z,21.81
2023-05-12T12:51:45.588Z,21.80
2023-05-12T12:54:31.294Z,21.80
2023-05-12T12:57:16.483Z,21.87
2023-05-12T13:00:02.144Z,21.87
2023-05-12T13:02:47.512Z,21.86
2023-05-12T13:05:32.779Z,21.89
2023-05-12T13:08:17.754Z,21.87
2023-05-12T13:11:03.046Z,21.87
2023-05-12T13:13:47.883Z,21.87
2023-05-12T13:16:32.874Z,21.88
2023-05-12T13:19:18.084Z,21.86
2023-05-12T13:22:03.299Z,21.86
2023-05-12T13:24:48.992Z,21.83
2023-05-12T13:27:35.375Z,21.84
2023-05-12T13:30:20.592Z,21.81
2023-05-12T13:33:06.361Z,21.81
2023-05-12T13:35:51.629Z,21.73
2023-05-12T13:38:36.518Z,21.77
2023-05-12T13:41:21.482Z,21.76
2023-05-12T13:44:06.314Z,21.73
2023-05-12T13:46:51.200Z,21.69
2023-05-12T13:49:36.898Z,21.63
2023-05-12T13:52:21.847Z,21.63
2023-05-12T13:55:07.224Z,21.60
2023-05-12T13:57:52.459Z,21.57
2023-05-12T14:00:37.764Z,21.56
2023-05-12T14:03:23.132Z,21.50
2023-05-12T14:06:08.439Z,21.47
2023-05-12T14:08:53.591Z,21.57
2023-05-12T14:11:38.932Z,21.63
2023-05-12T14:14:23.917Z,21.55
2023-05-12T14:17:08.756Z,21.51
2023-05-12T14:19:53.855Z,21.46
2023-05-12T14:22:38.938Z,21.43
2023-05-12T14:25:25.169Z,21.38
2023-05-12T14:28:10.566Z,21.45
2023-05-12T14:30:55.846Z,21.52
2023-05-12T14:33:41.418Z,21.64
2023-05-12T14:36:26.513Z,21.68
2023-05-12T14:39:11.563Z,21.70
2023-05-12T14:41:56.716Z,21.67
2023-05-12T14:44:41.666Z,21.64
2023-05-12T14:47:26.792Z,21.61
2023-05-12T14:50:12.003Z,21.58
2023-05-12T14:52:57.439Z,21.56
2023-05-12T14:55:42.573Z,21.49
2023-05-12T14:58:27.942Z,21.41
2023-05-12T15:01:13.077Z,21.39
2023-05-12T15:03:58.040Z,21.35
2023-05-12T15:06:42.910Z,21.34
2023-05-12T15:09:28.092Z,21.29
2023-05-12T15:12:13.253Z,21.28
2023-05-12T15:15:01.113Z,21.26
2023-05-12T15:17:46.290Z,21.24
2023-05-12T15:20:31.257Z,21.23
2023-05-12T15:23:16.311Z,21.21
2023-05-12T15:26:15.475Z,21.17
2023-05-12T15:29:06.263Z,21.17
2023-05-12T15:31:51.661Z,21.20
2023-05-12T15:34:37.195Z,21.16
2023-05-12T15:37:22.250Z,21.18
2023-05-12T15:40:08.067Z,21.22
2023-05-12T15:42:52.929Z,21.32
2023-05-12T15:45:37.911Z,21.36
2023-05-12T15:48:23.238Z,21.37
2023-05-12T15:51:08.517Z,21.25
2023-05-12T15:53:53.986Z,21.26
2023-05-12T15:56:39.155Z,21.30
2023-05-12T15:59:24.290Z,21.29
2023-05-12T16:02:09.438Z,21.32
2023-05-12T16:04:54.402Z,21.29
2023-05-12T16:07:39.778Z,21.19
2023-05-12T16:10:24.573Z,21.20
2023-05-12T16:13:09.563Z,21.28
2023-05-12T16:15:54.602Z,21.19
2023-05-12T16:18:40.138Z,21.19
2023-05-12T16:21:25.241Z,21.20
2023-05-12T16:24:11.088Z,21.20
2023-05-12T16:26:56.348Z,21.22
2023-05-12T16:29:45.386Z,21.26
2023-05-12T16:32:30.682Z,21.25
2023-05-12T16:35:15.909Z,21.27
2023-05-12T16:38:02.051Z,21.26
2023-05-12T16:40:46.981Z,21.25
2023-05-12T16:43:32.216Z,21.28
2023-05-12T16:46:17.538Z,21.28
2023-05-12T16:49:03.032Z,21.16
2023-05-12T16:51:48.427Z,21.16
2023-05-12T16:54:33.654Z,21.17
2023-05-12T16:57:19.080Z,21.16
2023-05-12T17:00:05.623Z,21.18
2023-05-12T17:02:50.878Z,21.10
2023-05-12T17:05:36.960Z,21.07
2023-05-12T17:08:22.411Z,21.06
2023-05-12T17:11:08.131Z,21.05
2023-05-12T17:13:53.729Z,21.00
2023-05-12T17:16:38.721Z,21.04
2023-05-12T17:19:24.130Z,21.03
2023-05-12T17:22:09.589Z,21.09
2023-05-12T17:24:54.805Z,21.07
2023-05-12T17:27:40.250Z,21.02
2023-05-12T17:30:25.114Z,21.02
2023-05-12T17:33:10.621Z,21.00
2023-05-12T17:36:10.842Z,20.96
2023-05-12T17:38:57.058Z,21.03
2023-05-12T17:41:43.914Z,20.97
2023-05-12T17:44:29.941Z,20.89
2023-05-12T17:47:15.304Z,20.85
2023-05-12T17:50:00.380Z,20.84
2023-05-12T17:52:45.182Z,20.87
2023-05-12T17:55:30.034Z,20.83
2023-05-12T17:58:14.915Z,20.83
2023-05-12T18:00:59.997Z,20.81
2023-05-12T18:03:44.819Z,20.82
2023-05-12T18:06:30.390Z,20.83
2023-05-12T18:09:17.706Z,20.87
2023-05-12T18:12:02.702Z,20.86
2023-05-12T18:14:47.647Z,20.86
2023-05-12T18:17:33.071Z,20.87
2023-05-12T18:20:18.922Z,20.90
2023-05-12T18:23:03.911Z,20.77
2023-05-12T18:25:48.978Z,20.80
2023-05-12T18:28:33.906Z,20.79
2023-05-12T18:31:20.020Z,20.85
2023-05-12T18:34:05.305Z,20.85
2023-05-12T18:36:50.168Z,20.86
2023-05-12T18:39:35.755Z,20.82
2023-05-12T18:42:21.042Z,20.82
2023-05-12T18:45:06.599Z,20.81
2023-05-12T18:47:51.780Z,20.79
2023-05-12T18:50:36.812Z,20.79
2023-05-12T18:53:22.305Z,20.80
2023-05-12T18:56:07.133Z,20.76
2023-05-12T18:58:52.151Z,20.75
2023-05-12T19:01:37.216Z,20.75
2023-05-12T19:04:22.552Z,20.78
2023-05-12T19:07:09.801Z,20.80
2023-05-12T19:09:55.805Z,20.84
2023-05-12T19:12:40.884Z,20.84
2023-05-12T19:15:26.503Z,20.83
2023-05-12T19:18:11.505Z,20.82
2023-05-12T19:20:56.711Z,20.76
2023-05-12T19:23:41.798Z,20.80
2023-05-12T19:26:27.052Z,20.78
2023-05-12T19:29:12.170Z,20.74
2023-05-12T19:31:57.051Z,20.76
2023-05-12T19:34:42.194Z,20.81
2023-05-12T19:37:27.580Z,20.84
2023-05-12T19:40:13.085Z,20.86
2023-05-12T19:42:58.218Z,20.86
2023-05-12T19:45:43.185Z,20.82
2023-05-12T19:48:28.045Z,20.76
2023-05-12T19:51:12.961Z,20.66
2023-05-12T19:53:58.161Z,20.65
2023-05-12T19:56:43.265Z,20.63
2023-05-12T19:59:28.022Z,20.58
2023-05-12T20:02:14.215Z,20.54
2023-05-12T20:05:00.670Z,20.51
2023-05-12T20:07:45.943Z,20.50
2023-05-12T20:10:30.905Z,20.48
2023-05-12T20:13:16.064Z,20.44
2023-05-12T20:16:01.001Z,20.48
2023-05-12T20:18:46.430Z,20.46
2023-05-12T20:21:31.513Z,20.45
2023-05-12T20:24:16.406Z,20.51
2023-05-12T20:27:01.395Z,20.59
2023-05-12T20:29:46.910Z,20.58
2023-05-12T20:32:32.179Z,20.48
2023-05-12T20:35:17.293Z,20.51
2023-05-12T20:38:02.879Z,20.43
2023-05-12T20:40:48.037Z,20.42
2023-05-12T20:43:33.055Z,20.40
2023-05-12T20:46:18.317Z,20.36
2023-05-12T20:49:03.673Z,20.39
2023-05-12T20:51:48.786Z,20.34
2023-05-12T20:54:33.676Z,20.28
2023-05-12T20:57:18.709Z,20.28
2023-05-12T21:00:04.158Z,20.24
2023-05-12T21:02:52.152Z,20.24
2023-05-12T21:05:39.079Z,20.24
2023-05-12T21:08:24.249Z,20.18
2023-05-12T21:11:14.794Z,20.20
2023-05-12T21:14:00.217Z,20.20
2023-05-12T21:16:45.730Z,20.19
2023-05-12T21:19:30.855Z,20.17
2023-05-12T21:22:16.094Z,20.13
2023-05-12T21:25:01.264Z,20.11
2023-05-12T21:27:47.413Z,20.08
2023-05-12T21:30:32.546Z,20.10
2023-05-12T21:33:17.767Z,20.11
2023-05-12T21:36:03.429Z,20.04
2023-05-12T21:38:48.409Z,20.06
2023-05-12T21:41:33.346Z,20.06
2023-05-12T21:44:18.317Z,20.03
2023-05-12T21:47:04.360Z,19.99
2023-05-12T21:49:56.849Z,20.00
2023-05-12T21:52:41.901Z,19.95
2023-05-12T21:55:26.781Z,19.91
2023-05-12T21:58:11.692Z,19.93
2023-05-12T22:00:56.547Z,19.95
2023-05-12T22:03:41.751Z,19.90
2023-05-12T22:06:26.958Z,19.91
2023-05-12T22:09:12.188Z,19.94
2023-05-12T22:11:57.155Z,19.94
2023-05-12T22:14:42.946Z,19.95
2023-05-12T22:17:28.335Z,19.97
2023-05-12T22:20:13.546Z,20.00
2023-05-12T22:22:59.328Z,20.02
2023-05-12T22:25:44.118Z,20.01
2023-05-12T22:28:29.047Z,19.99
2023-05-12T22:31:13.898Z,19.97
2023-05-12T22:33:58.851Z,19.93
2023-05-12T22:36:43.838Z,19.89
2023-05-12T22:39:28.769Z,19.86
2023-05-12T22:42:13.837Z,19.87
2023-05-12T22:45:00.765Z,19.88
2023-05-12T22:47:45.989Z,19.84
2023-05-12T22:50:30.812Z,19.83
2023-05-12T22:53:15.864Z,19.77
2023-05-12T22:56:01.299Z,19.78
2023-05-12T22:58:46.417Z,19.79
2023-05-12T23:01:31.605Z,19.77
2023-05-12T23:04:16.975Z,19.75
2023-05-12T23:07:02.099Z,19.74
2023-05-12T23:09:47.148Z,19.74
2023-05-12T23:12:32.060Z,19.69
2023-05-12T23:15:17.429Z,19.70
2023-05-12T23:18:02.278Z,19.72
2023-05-12T23:20:47.246Z,19.72
2023-05-12T23:23:33.233Z,19.67
2023-05-12T23:26:18.235Z,19.68
2023-05-12T23:29:04.083Z,19.63
2023-05-12T23:31:49.176Z,19.68
2023-05-12T23:34:34.124Z,19.70
2023-05-12T23:37:19.983Z,19.65
2023-05-12T23:40:05.648Z,19.64
2023-05-12T23:42:50.696Z,19.64
2023-05-12T23:45:35.864Z,19.63
2023-05-12T23:48:21.244Z,19.61
2023-05-12T23:51:06.202Z,19.59
2023-05-12T23:53:51.637Z,19.56
2023-05-12T23:56:36.552Z,19.56
2023-05-12T23:59:21.821Z,19.52
